createdAt,value
2023-05-19T11:01:47.295Z,85.50
2023-05-19T11:04:58.792Z,88.50
2023-05-19T11:06:32.293Z,80.50
2023-05-19T11:08:06.541Z,84.25
2023-05-19T11:09:40.961Z,84.75
2023-05-19T11:11:16.835Z,85.00
2023-05-19T11:12:48.795Z,80.50
2023-05-19T11:14:23.233Z,81.50
2023-05-19T11:15:55.609Z,76.75
2023-05-19T11:17:27.646Z,74.00
2023-05-19T11:18:59.824Z,75.60
2023-05-19T11:20:35.537Z,76.40
2023-05-19T11:22:11.634Z,85.25
2023-05-19T11:23:44.220Z,71.40
2023-05-19T11:25:18.315Z,69.20
2023-05-19T11:26:50.348Z,66.75
2023-05-19T11:28:26.907Z,61.50
2023-05-19T11:30:09.632Z,58.00
2023-05-19T11:31:42.274Z,58.50
2023-05-19T11:33:14.465Z,56.00
2023-05-19T11:34:46.592Z,49.50
2023-05-19T11:36:18.730Z,48.75
2023-05-19T11:37:52.565Z,52.00
2023-05-19T11:39:24.647Z,58.50
2023-05-19T11:40:56.851Z,69.00
2023-05-19T11:42:28.905Z,66.75
2023-05-19T11:44:00.985Z,67.25
2023-05-19T11:45:33.600Z,68.80
2023-05-19T11:47:06.320Z,69.50
2023-05-19T11:48:38.372Z,67.75
2023-05-19T11:50:11.457Z,68.75
2023-05-19T11:51:44.017Z,69.75
2023-05-19T11:53:20.077Z,71.60
2023-05-19T11:54:52.587Z,89.50
2023-05-19T11:56:24.598Z,95.25
2023-05-19T11:58:05.558Z,86.75
2023-05-19T11:59:39.314Z,91.25
2023-05-19T12:01:11.659Z,98.75
2023-05-19T12:02:43.773Z,98.50
2023-05-19T12:04:15.826Z,99.50
2023-05-19T12:05:49.153Z,100.50
2023-05-19T12:07:24.743Z,96.75
2023-05-19T12:08:56.921Z,94.50
2023-05-19T12:10:30.526Z,92.25
2023-05-19T12:12:02.898Z,94.00
2023-05-19T12:13:34.773Z,92.50
2023-05-19T12:15:07.393Z,97.75
2023-05-19T12:16:39.391Z,93.25
2023-05-19T12:18:11.418Z,89.75
2023-05-19T12:19:43.661Z,94.25
2023-05-19T12:21:15.900Z,88.50
2023-05-19T12:22:48.262Z,91.25
2023-05-19T12:24:20.850Z,92.00
2023-05-19T12:25:53.227Z,85.25
2023-05-19T12:27:26.854Z,109.00
2023-05-19T12:28:59.035Z,92.75
2023-05-19T12:30:31.825Z,91.25
2023-05-19T12:32:04.503Z,79.00
2023-05-19T12:33:36.504Z,81.25
2023-05-19T12:35:09.011Z,82.25
2023-05-19T12:36:41.607Z,87.75
2023-05-19T12:38:14.395Z,83.50
2023-05-19T12:39:46.444Z,82.60
2023-05-19T12:41:18.584Z,79.00
2023-05-19T12:42:52.419Z,72.80
2023-05-19T12:44:25.130Z,76.80
2023-05-19T12:45:57.262Z,71.00
2023-05-19T12:47:36.090Z,74.80
2023-05-19T12:49:08.231Z,72.00
2023-05-19T12:50:40.247Z,72.80
2023-05-19T12:52:13.990Z,63.25
2023-05-19T12:53:47.624Z,68.50
2023-05-19T12:55:20.794Z,66.00
2023-05-19T12:56:52.786Z,65.25
2023-05-19T12:58:24.922Z,68.50
2023-05-19T13:00:05.253Z,57.25
2023-05-19T13:01:37.262Z,60.75
2023-05-19T13:03:14.980Z,59.00
2023-05-19T13:04:47.052Z,61.00
2023-05-19T13:06:19.178Z,62.00
2023-05-19T13:07:58.579Z,57.00
2023-05-19T13:09:35.104Z,54.75
2023-05-19T13:11:07.260Z,54.25
2023-05-19T13:12:39.160Z,53.25
2023-05-19T13:14:12.810Z,56.25
2023-05-19T13:15:45.929Z,56.75
2023-05-19T13:17:19.612Z,42.00
2023-05-19T13:18:51.721Z,42.25
2023-05-19T13:20:26.303Z,48.75
2023-05-19T13:21:59.658Z,47.50
2023-05-19T13:23:31.799Z,40.00
2023-05-19T13:25:03.826Z,43.50
2023-05-19T13:26:35.824Z,38.75
2023-05-19T13:28:08.231Z,40.25
2023-05-19T13:29:40.170Z,37.75
2023-05-19T13:31:12.400Z,35.40
2023-05-19T13:32:45.352Z,37.40
2023-05-19T13:34:18.501Z,35.40
2023-05-19T13:35:50.793Z,33.60
2023-05-19T13:37:23.378Z,31.20
2023-05-19T13:38:55.624Z,29.60
2023-05-19T13:40:28.423Z,31.40
2023-05-19T13:42:00.597Z,31.40
2023-05-19T13:43:32.719Z,27.60
2023-05-19T13:45:05.446Z,30.20
2023-05-19T13:48:16.198Z,31.20
2023-05-19T13:49:48.375Z,30.60
2023-05-19T13:51:20.625Z,27.80
2023-05-19T13:52:52.689Z,28.80
2023-05-19T13:54:24.689Z,28.00
2023-05-19T13:55:56.948Z,28.60
2023-05-19T13:57:29.224Z,26.20
2023-05-19T13:59:01.344Z,27.60
2023-05-19T14:00:33.650Z,27.60
2023-05-19T14:02:06.678Z,25.60
2023-05-19T14:03:38.899Z,27.00
2023-05-19T14:05:11.186Z,27.60
2023-05-19T14:06:43.505Z,26.00
2023-05-19T14:08:16.628Z,25.40
2023-05-19T14:09:51.272Z,25.60
2023-05-19T14:11:23.346Z,27.20
2023-05-19T14:13:28.931Z,26.40
2023-05-19T14:14:49.264Z,26.00
2023-05-19T14:16:23.216Z,22.40
2023-05-19T14:17:55.649Z,23.20
2023-05-19T14:19:30.521Z,24.60
2023-05-19T14:21:02.625Z,25.40
2023-05-19T14:22:34.618Z,25.80
2023-05-19T14:24:06.858Z,24.80
2023-05-19T14:25:38.772Z,24.60
2023-05-19T14:27:10.716Z,24.20
2023-05-19T14:28:42.951Z,23.20
2023-05-19T14:30:15.135Z,24.20
2023-05-19T14:31:47.521Z,23.40
2023-05-19T14:33:21.071Z,22.20
2023-05-19T14:34:53.316Z,22.80
2023-05-19T14:36:25.328Z,23.40
2023-05-19T14:37:57.238Z,24.20
2023-05-19T14:39:30.122Z,23.00
2023-05-19T14:41:02.103Z,22.20
2023-05-19T14:42:34.259Z,23.40
2023-05-19T14:44:06.255Z,23.20
2023-05-19T14:45:42.245Z,22.60
2023-05-19T14:47:14.323Z,18.40
2023-05-19T14:48:46.354Z,21.00
2023-05-19T14:50:18.669Z,22.20
2023-05-19T14:51:50.663Z,22.20
2023-05-19T14:53:22.724Z,20.40
2023-05-19T14:54:54.712Z,17.00
2023-05-19T14:56:26.870Z,21.20
2023-05-19T14:57:58.821Z,20.00
2023-05-19T14:59:30.796Z,19.60
2023-05-19T15:01:02.894Z,20.00
2023-05-19T15:02:35.233Z,20.80
2023-05-19T15:04:07.235Z,20.80
2023-05-19T15:05:40.451Z,21.60
2023-05-19T15:07:12.380Z,17.40
2023-05-19T15:08:44.491Z,20.80
2023-05-19T15:10:17.169Z,13.40
2023-05-19T15:11:49.107Z,19.40
2023-05-19T15:13:21.742Z,16.60
2023-05-19T15:14:53.727Z,20.00
2023-05-19T15:16:25.820Z,19.20
2023-05-19T15:17:57.821Z,16.00
2023-05-19T15:19:29.860Z,18.20
2023-05-19T15:21:01.932Z,13.60
2023-05-19T15:22:34.323Z,18.00
2023-05-19T15:24:06.660Z,19.00
2023-05-19T15:25:38.679Z,17.00
2023-05-19T15:27:10.741Z,18.40
2023-05-19T15:28:42.783Z,14.80
2023-05-19T15:30:14.931Z,17.80
2023-05-19T15:31:49.841Z,18.00
2023-05-19T15:33:22.108Z,18.80
2023-05-19T15:34:54.043Z,16.00
2023-05-19T15:36:26.062Z,17.20
2023-05-19T15:37:58.178Z,17.80
2023-05-19T15:39:30.833Z,16.20
2023-05-19T15:41:06.593Z,15.80
2023-05-19T15:42:38.735Z,15.00
2023-05-19T15:44:10.870Z,18.00
2023-05-19T15:45:42.819Z,16.00
2023-05-19T15:47:14.776Z,18.00
2023-05-19T15:48:46.862Z,15.40
2023-05-19T15:50:18.850Z,15.20
2023-05-19T15:51:51.189Z,16.00
2023-05-19T15:53:23.583Z,11.40
2023-05-19T15:54:59.172Z,16.60
2023-05-19T15:56:31.132Z,16.00
2023-05-19T15:58:03.132Z,17.20
2023-05-19T15:59:35.060Z,18.00
2023-05-19T16:01:07.139Z,16.40
2023-05-19T16:02:39.340Z,15.60
2023-05-19T16:04:11.566Z,16.00
2023-05-19T16:05:43.591Z,16.00
2023-05-19T16:07:16.976Z,16.60
2023-05-19T16:08:48.915Z,15.80
2023-05-19T16:10:21.064Z,14.60
2023-05-19T16:11:53.193Z,16.00
2023-05-19T16:13:25.340Z,15.80
2023-05-19T16:14:57.584Z,15.40
2023-05-19T16:16:29.686Z,14.00
2023-05-19T16:18:01.724Z,14.00
2023-05-19T16:19:33.763Z,15.00
2023-05-19T16:21:06.441Z,14.00
2023-05-19T16:22:38.407Z,13.40
2023-05-19T16:24:10.262Z,16.60
2023-05-19T16:25:42.453Z,16.00
2023-05-19T16:27:14.591Z,15.80
2023-05-19T16:28:46.698Z,12.60
2023-05-19T16:30:18.770Z,14.40
2023-05-19T16:31:50.952Z,16.00
2023-05-19T16:33:22.945Z,16.00
2023-05-19T16:34:55.022Z,15.20
2023-05-19T16:36:27.191Z,17.00
2023-05-19T16:37:59.290Z,15.40
2023-05-19T16:39:31.202Z,13.80
2023-05-19T16:41:05.319Z,15.80
2023-05-19T16:42:37.246Z,15.00
2023-05-19T16:44:09.473Z,14.20
2023-05-19T16:45:41.840Z,13.60
2023-05-19T16:47:16.664Z,14.20
2023-05-19T16:48:48.942Z,8.20
2023-05-19T16:50:21.202Z,19.60
2023-05-19T16:51:54.381Z,19.40
2023-05-19T16:53:26.677Z,19.80
2023-05-19T16:54:58.903Z,20.20
2023-05-19T16:56:30.786Z,22.20
2023-05-19T16:58:02.664Z,22.40
2023-05-19T16:59:34.615Z,22.00
2023-05-19T17:01:06.934Z,23.00
2023-05-19T17:02:39.156Z,21.60
2023-05-19T17:04:11.998Z,21.40
2023-05-19T17:05:44.081Z,24.00
2023-05-19T17:07:16.025Z,21.60
2023-05-19T17:08:47.965Z,22.20
2023-05-19T17:10:20.104Z,22.20
2023-05-19T17:11:53.222Z,20.00
2023-05-19T17:13:25.221Z,22.20
2023-05-19T17:14:57.264Z,22.40
2023-05-19T17:16:29.355Z,20.20
2023-05-19T17:18:01.436Z,17.00
2023-05-19T17:19:33.493Z,22.20
2023-05-19T17:21:05.790Z,20.80
2023-05-19T17:22:37.992Z,20.80
2023-05-19T17:24:10.291Z,19.80
2023-05-19T17:25:42.610Z,22.80
2023-05-19T17:27:15.374Z,22.20
2023-05-19T17:28:47.468Z,20.60
2023-05-19T17:30:19.902Z,22.20
2023-05-19T17:31:52.159Z,21.80
2023-05-19T17:33:24.123Z,22.00
2023-05-19T17:34:56.650Z,22.00
2023-05-19T17:36:28.870Z,22.20
2023-05-19T17:38:01.333Z,15.00
2023-05-19T17:39:33.539Z,17.80
2023-05-19T17:41:09.997Z,21.40
2023-05-19T17:42:42.114Z,19.40
2023-05-19T17:44:14.031Z,18.40
2023-05-19T17:45:45.936Z,18.00
2023-05-19T17:47:18.093Z,19.40
2023-05-19T17:48:50.233Z,16.20
2023-05-19T17:50:22.343Z,19.40
2023-05-19T17:51:54.453Z,19.00
2023-05-19T17:53:26.699Z,19.60
2023-05-19T17:54:59.150Z,20.00
2023-05-19T17:56:31.942Z,19.00
2023-05-19T17:58:04.135Z,17.20
2023-05-19T17:59:36.389Z,17.20
2023-05-19T18:01:08.818Z,19.60
2023-05-19T18:02:41.179Z,20.20
2023-05-19T18:04:15.899Z,18.40
2023-05-19T18:05:48.990Z,24.80
2023-05-19T18:07:21.020Z,31.00
2023-05-19T18:08:53.520Z,36.20
2023-05-19T18:10:25.466Z,47.00
2023-05-19T18:11:57.674Z,43.75
2023-05-19T18:13:29.670Z,35.50
2023-05-19T18:15:01.641Z,34.20
2023-05-19T18:16:33.768Z,34.40
2023-05-19T18:18:07.878Z,37.60
2023-05-19T18:19:39.905Z,38.00
2023-05-19T18:21:14.477Z,40.25
2023-05-19T18:22:47.114Z,38.75
2023-05-19T18:24:19.012Z,41.75
2023-05-19T18:25:53.441Z,44.75
2023-05-19T18:27:25.467Z,50.75
2023-05-19T18:29:02.582Z,41.50
2023-05-19T18:30:35.075Z,48.75
2023-05-19T18:32:07.821Z,49.75
2023-05-19T18:33:39.931Z,52.25
2023-05-19T18:35:11.814Z,60.50
2023-05-19T18:36:44.059Z,56.25
2023-05-19T18:38:16.233Z,61.50
2023-05-19T18:39:48.248Z,56.75
2023-05-19T18:41:20.185Z,50.00
2023-05-19T18:42:52.188Z,49.50
2023-05-19T18:44:24.049Z,54.00
2023-05-19T18:45:57.061Z,51.75
2023-05-19T18:47:29.032Z,54.75
2023-05-19T18:49:01.035Z,64.50
2023-05-19T18:50:33.305Z,69.50
2023-05-19T18:52:06.004Z,70.20
2023-05-19T18:53:38.152Z,75.40
2023-05-19T18:55:10.428Z,72.20
2023-05-19T18:56:42.515Z,74.60
2023-05-19T18:58:14.620Z,73.20
2023-05-19T18:59:46.657Z,77.60
2023-05-19T19:01:18.778Z,81.00
2023-05-19T19:02:50.746Z,73.50
2023-05-19T19:04:22.801Z,85.00
2023-05-19T19:05:58.059Z,91.75
2023-05-19T19:07:30.038Z,87.25
2023-05-19T19:09:01.945Z,93.25
2023-05-19T19:10:37.455Z,99.25
2023-05-19T19:12:09.797Z,104.50
2023-05-19T19:13:41.727Z,101.00
2023-05-19T19:15:13.824Z,90.75
2023-05-19T19:16:45.956Z,104.75
2023-05-19T19:18:18.018Z,105.00
2023-05-19T19:19:50.310Z,108.50
2023-05-19T19:21:24.204Z,102.00
2023-05-19T19:22:56.180Z,107.25
2023-05-19T19:24:28.668Z,111.75
2023-05-19T19:26:00.786Z,106.25
2023-05-19T19:27:35.609Z,109.25
2023-05-19T19:29:07.598Z,102.50
2023-05-19T19:30:39.565Z,110.25
2023-05-19T19:32:11.467Z,106.25
2023-05-19T19:33:43.732Z,107.00
2023-05-19T19:35:16.265Z,94.25
2023-05-19T19:36:48.418Z,106.75
2023-05-19T19:38:20.500Z,100.75
2023-05-19T19:39:52.622Z,99.75
2023-05-19T19:41:26.305Z,104.50
2023-05-19T19:42:58.472Z,109.50
2023-05-19T19:44:30.672Z,102.00
2023-05-19T19:46:03.153Z,100.75
2023-05-19T19:47:35.261Z,99.75
2023-05-19T19:49:07.426Z,99.00
2023-05-19T19:50:39.581Z,96.50
2023-05-19T19:52:11.529Z,95.25
2023-05-19T19:53:43.519Z,94.75
2023-05-19T19:55:16.053Z,94.00
2023-05-19T19:56:48.044Z,96.25
2023-05-19T19:58:20.114Z,101.00
2023-05-19T19:59:55.383Z,102.50
2023-05-19T20:01:28.130Z,99.00
2023-05-19T20:04:35.200Z,97.75
2023-05-19T20:06:07.978Z,96.25
2023-05-19T20:07:39.891Z,107.25
2023-05-19T20:09:12.570Z,100.00
2023-05-19T20:10:46.465Z,98.50
2023-05-19T20:12:18.668Z,100.00
2023-05-19T20:13:50.696Z,93.50
2023-05-19T20:15:22.821Z,92.50
2023-05-19T20:16:54.943Z,93.25
2023-05-19T20:18:32.711Z,89.75
2023-05-19T20:20:09.930Z,86.50
2023-05-19T20:21:41.871Z,84.25
2023-05-19T20:23:14.453Z,88.75
2023-05-19T20:24:46.752Z,79.75
2023-05-19T20:26:18.919Z,77.50
2023-05-19T20:27:50.988Z,77.75
2023-05-19T20:29:24.079Z,75.40
2023-05-19T20:30:56.390Z,75.20
2023-05-19T20:32:28.348Z,66.60
2023-05-19T20:34:01.763Z,72.20
2023-05-19T20:35:34.103Z,73.00
2023-05-19T20:37:06.485Z,71.00
2023-05-19T20:38:38.587Z,65.25
2023-05-19T20:40:11.470Z,66.25
2023-05-19T20:41:43.298Z,60.75
2023-05-19T20:43:15.380Z,62.25
2023-05-19T20:44:47.553Z,60.00
2023-05-19T20:46:19.607Z,59.00
2023-05-19T20:47:52.201Z,56.75
2023-05-19T20:49:24.416Z,56.25
2023-05-19T20:50:56.409Z,59.00
2023-05-19T20:52:28.387Z,63.25
2023-05-19T20:54:00.577Z,61.25
2023-05-19T20:55:32.738Z,65.25
2023-05-19T20:57:09.181Z,67.60
2023-05-19T20:58:41.306Z,73.00
2023-05-19T21:00:13.651Z,65.40
2023-05-19T21:01:45.770Z,70.80
2023-05-19T21:03:17.799Z,70.80
2023-05-19T21:04:50.912Z,65.40
2023-05-19T21:06:22.823Z,72.60
2023-05-19T21:07:54.764Z,75.00
2023-05-19T21:09:26.678Z,95.75
2023-05-19T21:10:59.488Z,118.75
2023-05-19T21:12:34.360Z,115.50
2023-05-19T21:14:08.023Z,111.00
2023-05-19T21:15:39.852Z,96.00
2023-05-19T21:17:12.046Z,107.50
2023-05-19T21:18:44.239Z,174.00
2023-05-19T21:20:16.418Z,159.50
2023-05-19T21:21:48.322Z,143.67
2023-05-19T21:23:20.297Z,108.00
2023-05-19T21:24:52.511Z,100.50
2023-05-19T21:26:24.435Z,90.50
2023-05-19T21:27:56.986Z,98.25
2023-05-19T21:29:28.982Z,93.00
2023-05-19T21:31:01.042Z,88.00
2023-05-19T21:32:33.032Z,91.00
2023-05-19T21:34:04.952Z,103.00
2023-05-19T21:35:37.043Z,93.00
2023-05-19T21:37:08.992Z,85.25
2023-05-19T21:38:41.113Z,81.00
2023-05-19T21:40:13.147Z,84.50
2023-05-19T21:41:45.217Z,78.75
2023-05-19T21:43:17.116Z,79.75
2023-05-19T21:44:49.183Z,78.80
2023-05-19T21:46:21.112Z,84.25
2023-05-19T21:47:53.136Z,72.60
2023-05-19T21:49:25.152Z,69.80
2023-05-19T21:50:57.927Z,69.80
2023-05-19T21:52:30.381Z,68.40
2023-05-19T21:54:02.867Z,67.25
2023-05-19T21:55:35.053Z,67.25
2023-05-19T21:57:07.018Z,69.25
2023-05-19T21:58:38.973Z,69.75
2023-05-19T22:00:13.407Z,63.00
2023-05-19T22:01:45.340Z,64.00
2023-05-19T22:03:17.622Z,63.50
2023-05-19T22:04:49.575Z,58.25
2023-05-19T22:06:21.934Z,65.00
2023-05-19T22:07:53.868Z,70.25
2023-05-19T22:09:25.899Z,68.00
2023-05-19T22:10:57.739Z,55.50
2023-05-19T22:12:31.539Z,62.00
2023-05-19T22:14:03.410Z,52.50
2023-05-19T22:15:35.347Z,48.50
2023-05-19T22:17:07.262Z,48.00
2023-05-19T22:18:39.332Z,50.25
2023-05-19T22:20:12.002Z,47.50
2023-05-19T22:21:44.068Z,45.50
2023-05-19T22:23:16.034Z,47.50
2023-05-19T22:24:48.093Z,49.00
2023-05-19T22:26:20.080Z,42.50
2023-05-19T22:27:51.986Z,41.00
2023-05-19T22:29:23.893Z,38.25
2023-05-19T22:30:55.860Z,40.00
2023-05-19T22:32:27.927Z,40.50
2023-05-19T22:33:59.900Z,40.50
